Strona główna
METAR-TAF:

METAR-TAF

Lotnisko :

Port lotniczy Parnawa

Parnawa, Estonia

Szerokość geograficzna: 58-25-09N, Długość geograficzna: 024-28-22E, wysokość: 14 m

Aktualna obserwacja pogody

Raport powstał 20 minut temu, godzina 09:50 UTC
Wiatr 7 kt od zachód
Temperatura 24°C
Wilgotność 44%
Ciśnienie 1014 hPa
Widzialność 10 km lub więcej
Mało chmury

METAR: EEPU 200950Z 28007KT 9999 FEW/// 24/11 Q1014

czas: 13:10 (10:10 UTC)


TAF: brakujący

Obserwacja i prognoza pogody dla ponad 4000 lotnisk (raport METAR i TAF).

Dostępne stacje oznaczono żółtymi i czerwonymi punktami na mapie.

Najedź kursorem aby zobaczyć nazwę stacji.

Kliknij aby zobaczyć obserwacje i prognozy pogody.

Aby zmienić mapę: kliknij na zielony przycisk z czarnym krzyżykiem, aby powiększyć; na zielony przycisk z myślnikiem, aby pomniejszyć; na zielone strzałki, aby przejść do map sąsiednich.


METAR-TAF: